Time;durP1;ratioP1;P1;durP2;ratioP2;P2;SDS_P1;SDS_P2;PMS_P1;PMS_P2;Temp;Humidity;BMP_temperature;BMP_pressure;BME280_temperature;BME280_humidity;BME280_pressure;Samples;Min_cycle;Max_cycle;Signal;HPM_P1;HPM_P2
2021/10/01 00:01:56;;;;;;;;;;;;;;;4.68;96.13;100186.45;111705;1197;64631;-91
2021/10/01 00:04:24;;;;;;;;;;;;;;;4.63;96.23;100185.35;111677;1198;61078;-89
2021/10/01 00:06:51;;;;;;;;;;;;;;;4.59;96.38;100185.43;112564;1174;63699;-88
2021/10/01 00:09:18;;;;;;;;;;;;;;;4.58;96.47;100189.15;112245;1193;61052;-89
2021/10/01 00:11:52;;;;;;;;;;;;;;;4.53;96.48;100189.10;112167;1195;60909;-89
2021/10/01 00:14:26;;;;;;;;;;;;;;;4.51;96.58;100191.95;112250;1193;64838;-91
2021/10/01 00:16:53;;;;;;;;;;;;;;;4.53;96.72;100188.92;112322;1193;61064;-88
2021/10/01 00:19:22;;;;;;;;;;;;;;;4.54;96.88;100189.42;112285;1193;62689;-90
2021/10/01 00:21:49;;;;;;;;;;;;;;;4.54;96.99;100189.42;112315;1193;61030;-89
2021/10/01 00:24:16;;;;;;;;;;;;;;;4.54;97.00;100189.95;112263;1195;61058;-89
2021/10/01 00:26:42;;;;;;;;;;;;;;;4.55;96.97;100185.54;112042;1194;64355;-89
2021/10/01 00:29:10;;;;;;;;;;;;;;;4.51;96.77;100184.55;112286;1193;61063;-89
2021/10/01 00:31:37;;;;;;;;;;;;;;;4.47;96.66;100184.30;112270;1195;62759;-89
2021/10/01 00:34:04;;;;;;;;;;;;;;;4.40;96.57;100185.33;112307;1193;60981;-90
2021/10/01 00:36:30;;;;;;;;;;;;;;;4.33;96.42;100180.73;112222;1194;61558;-89
2021/10/01 00:38:58;;;;;;;;;;;;;;;4.28;96.52;100180.85;112322;1193;66017;-90
2021/10/01 00:41:27;;;;;;;;;;;;;;;4.29;96.70;100182.97;112324;1193;61067;-89
2021/10/01 00:43:54;;;;;;;;;;;;;;;4.25;96.54;100179.88;112356;1193;62734;-90
2021/10/01 00:46:21;;;;;;;;;;;;;;;4.22;96.63;100177.13;112238;1194;61486;-90
2021/10/01 00:48:48;;;;;;;;;;;;;;;4.21;96.75;100174.33;113049;1193;61055;-90
2021/10/01 00:51:16;;;;;;;;;;;;;;;4.18;96.73;100173.88;112810;1193;66019;-91
2021/10/01 00:53:44;;;;;;;;;;;;;;;4.15;96.89;100171.48;113862;1193;60966;-90
2021/10/01 00:56:11;;;;;;;;;;;;;;;4.14;97.08;100170.96;113535;1193;63815;-90
2021/10/01 00:58:37;;;;;;;;;;;;;;;4.12;97.23;100171.88;113199;1193;61033;-90
2021/10/01 01:01:10;;;;;;;;;;;;;;;4.15;97.46;100168.83;114250;1194;60925;-90
2021/10/01 01:03:39;;;;;;;;;;;;;;;4.17;97.51;100165.27;113094;1193;64640;-88
2021/10/01 01:06:18;;;;;;;;;;;;;;;4.18;97.49;100164.03;112205;1193;61401;-90
2021/10/01 01:08:53;;;;;;;;;;;;;;;4.14;97.45;100161.98;112211;1193;64055;-92
2021/10/01 01:11:26;;;;;;;;;;;;;;;4.10;97.39;100162.80;112239;1193;61042;-90
2021/10/01 01:13:56;;;;;;;;;;;;;;;4.02;97.16;100164.73;112243;1193;61041;-88
2021/10/01 01:16:29;;;;;;;;;;;;;;;3.94;97.22;100166.80;112292;1193;65906;-90
2021/10/01 01:18:58;;;;;;;;;;;;;;;3.91;97.49;100171.10;112285;1193;61039;-89
2021/10/01 01:21:30;;;;;;;;;;;;;;;3.92;97.76;100172.13;112248;1196;63833;-89
2021/10/01 01:24:16;;;;;;;;;;;;;;;3.94;97.80;100176.83;112299;1193;61033;-90
2021/10/01 01:26:58;;;;;;;;;;;;;;;3.98;97.98;100181.52;112334;1193;61014;-90
2021/10/01 01:29:30;;;;;;;;;;;;;;;4.02;98.21;100176.70;112275;1193;75795;-90
2021/10/01 01:31:57;;;;;;;;;;;;;;;4.08;98.35;100178.85;112287;1193;60975;-90
2021/10/01 01:34:29;;;;;;;;;;;;;;;4.14;98.50;100176.23;112250;1193;60946;-89
2021/10/01 01:36:58;;;;;;;;;;;;;;;4.20;98.62;100173.49;112253;1193;60945;-89
2021/10/01 01:39:26;;;;;;;;;;;;;;;4.21;98.62;100174.33;112262;1193;61039;-89
2021/10/01 01:41:54;;;;;;;;;;;;;;;4.22;98.60;100168.16;112264;1193;64694;-89
2021/10/01 01:44:21;;;;;;;;;;;;;;;4.19;98.60;100166.28;112293;1193;60982;-89
2021/10/01 01:46:48;;;;;;;;;;;;;;;4.18;98.58;100169.13;112290;1195;64150;-88
2021/10/01 01:49:15;;;;;;;;;;;;;;;4.19;98.73;100170.67;112214;1193;60975;-89
2021/10/01 01:51:42;;;;;;;;;;;;;;;4.23;98.85;100175.52;112215;1195;61033;-88
2021/10/01 01:54:11;;;;;;;;;;;;;;;4.25;98.93;100172.31;112322;1193;66044;-87
2021/10/01 01:56:38;;;;;;;;;;;;;;;4.29;98.88;100171.17;112320;1193;61046;-88
2021/10/01 01:59:05;;;;;;;;;;;;;;;4.30;98.81;100171.50;112269;1195;64044;-89
2021/10/01 02:01:32;;;;;;;;;;;;;;;4.25;98.59;100176.35;112217;1193;61058;-88
2021/10/01 02:04:00;;;;;;;;;;;;;;;4.16;98.32;100180.94;112282;1193;61053;-89
2021/10/01 02:06:27;;;;;;;;;;;;;;;4.09;98.28;100178.64;112306;1193;66004;-89
2021/10/01 02:08:56;;;;;;;;;;;;;;;4.04;98.06;100174.19;112178;1193;61017;-89
2021/10/01 02:11:23;;;;;;;;;;;;;;;3.97;98.03;100177.30;112218;1193;62773;-89
2021/10/01 02:13:51;;;;;;;;;;;;;;;3.94;98.21;100175.42;112202;1193;61065;-89
2021/10/01 02:16:18;;;;;;;;;;;;;;;3.96;98.42;100172.91;112318;1193;61078;-89
2021/10/01 02:18:47;;;;;;;;;;;;;;;3.97;98.50;100171.85;112334;1195;66153;-90
2021/10/01 02:21:15;;;;;;;;;;;;;;;3.98;98.57;100168.67;112365;1193;61033;-89
2021/10/01 02:23:41;;;;;;;;;;;;;;;3.95;98.59;100162.75;112241;1196;62451;-88
2021/10/01 02:28:54;;;;;;;;;;;;;;;3.92;98.67;100160.73;112307;1193;61055;-86
2021/10/01 02:31:27;;;;;;;;;;;;;;;3.88;98.52;100155.17;112281;1193;61038;-87
2021/10/01 02:33:56;;;;;;;;;;;;;;;3.84;98.49;100153.66;112372;1193;61497;-87
2021/10/01 02:36:22;;;;;;;;;;;;;;;3.79;98.45;100150.61;112283;1193;63742;-87
2021/10/01 02:38:49;;;;;;;;;;;;;;;3.72;98.29;100147.23;112262;1193;60969;-87
2021/10/01 02:41:16;;;;;;;;;;;;;;;3.68;98.33;100146.44;112290;1194;60975;-88
2021/10/01 02:43:42;;;;;;;;;;;;;;;3.62;98.14;100148.67;112253;1193;61068;-87
2021/10/01 02:46:09;;;;;;;;;;;;;;;3.59;98.37;100147.69;112213;1196;60991;-87
2021/10/01 02:48:36;;;;;;;;;;;;;;;3.58;98.37;100150.70;112275;1193;61131;-87
2021/10/01 02:51:07;;;;;;;;;;;;;;;3.53;98.19;100152.71;112226;1195;61126;-88
2021/10/01 02:54:00;;;;;;;;;;;;;;;3.48;98.17;100153.16;112233;1193;61050;-87
2021/10/01 02:56:34;;;;;;;;;;;;;;;3.44;98.20;100151.48;112283;1194;65898;-88
2021/10/01 02:59:02;;;;;;;;;;;;;;;3.46;98.51;100152.33;112268;1193;61073;-87
2021/10/01 03:01:30;;;;;;;;;;;;;;;3.53;98.91;100143.23;112277;1193;62687;-87
2021/10/01 03:03:59;;;;;;;;;;;;;;;3.61;99.16;100139.20;112253;1196;61129;-87
2021/10/01 03:06:27;;;;;;;;;;;;;;;3.67;99.30;100134.69;112319;1193;61055;-87
2021/10/01 03:08:54;;;;;;;;;;;;;;;3.71;99.42;100131.27;112310;1193;66033;-88
2021/10/01 03:11:24;;;;;;;;;;;;;;;3.75;99.51;100133.81;112315;1193;61068;-89
2021/10/01 03:13:51;;;;;;;;;;;;;;;3.81;99.53;100132.29;112265;1193;64051;-88
2021/10/01 03:16:19;;;;;;;;;;;;;;;3.83;99.56;100131.36;112299;1193;61051;-88
2021/10/01 03:18:46;;;;;;;;;;;;;;;3.88;99.69;100125.46;112309;1193;60908;-90
2021/10/01 03:21:13;;;;;;;;;;;;;;;3.93;99.80;100120.26;112225;1193;66040;-89
2021/10/01 03:23:41;;;;;;;;;;;;;;;3.97;99.81;100120.87;112301;1193;60952;-91
2021/10/01 03:26:07;;;;;;;;;;;;;;;3.99;99.90;100123.46;112319;1194;62635;-89
2021/10/01 03:28:37;;;;;;;;;;;;;;;4.01;99.77;100123.60;112372;1194;61033;-90
2021/10/01 03:31:04;;;;;;;;;;;;;;;4.03;99.77;100124.61;112365;1193;61085;-89
2021/10/01 03:33:31;;;;;;;;;;;;;;;4.06;99.84;100125.60;112241;1195;66086;-89
2021/10/01 03:35:58;;;;;;;;;;;;;;;4.08;99.84;100125.73;112334;1193;60998;-87
2021/10/01 03:38:25;;;;;;;;;;;;;;;4.11;99.86;100122.16;112320;1196;62682;-88
2021/10/01 03:40:52;;;;;;;;;;;;;;;4.12;99.84;100114.55;112329;1193;61039;-89
2021/10/01 03:43:24;;;;;;;;;;;;;;;4.12;99.80;100116.13;112348;1193;60984;-86
2021/10/01 03:45:51;;;;;;;;;;;;;;;4.11;99.79;100115.09;112544;1193;66077;-86
2021/10/01 03:48:17;;;;;;;;;;;;;;;4.11;99.81;100114.41;112730;1193;60965;-88
2021/10/01 03:50:43;;;;;;;;;;;;;;;4.10;99.83;100108.43;113411;1193;61132;-87
2021/10/01 03:53:11;;;;;;;;;;;;;;;4.11;99.80;100109.31;112897;1193;60991;-89
2021/10/01 03:55:38;;;;;;;;;;;;;;;4.11;99.78;100108.79;113304;1193;60956;-87
2021/10/01 03:58:05;;;;;;;;;;;;;;;4.09;99.84;100107.41;113409;1193;66008;-88
2021/10/01 04:00:31;;;;;;;;;;;;;;;4.12;99.83;100105.06;112862;1195;61148;-87
2021/10/01 04:02:58;;;;;;;;;;;;;;;4.12;99.87;100106.81;112895;1193;62701;-87
2021/10/01 04:05:25;;;;;;;;;;;;;;;4.12;99.80;100102.42;112845;1195;61117;-89
2021/10/01 04:07:51;;;;;;;;;;;;;;;4.12;99.77;100102.77;112980;1193;61043;-89
2021/10/01 04:10:18;;;;;;;;;;;;;;;4.14;99.80;100105.71;112487;1196;59894;-87
2021/10/01 04:12:45;;;;;;;;;;;;;;;4.16;99.79;100106.73;112404;1193;61074;-91
2021/10/01 04:15:12;;;;;;;;;;;;;;;4.17;99.89;100106.70;112318;1193;64058;-89
2021/10/01 04:17:38;;;;;;;;;;;;;;;4.16;99.84;100103.38;112333;1193;61398;-88
2021/10/01 04:20:05;;;;;;;;;;;;;;;4.15;99.85;100104.11;112298;1193;61116;-91
2021/10/01 04:22:32;;;;;;;;;;;;;;;4.17;99.88;100107.05;112308;1195;66019;-88
2021/10/01 04:24:58;;;;;;;;;;;;;;;4.18;99.95;100107.20;112274;1196;61061;-88
2021/10/01 04:27:25;;;;;;;;;;;;;;;4.19;99.96;100108.23;112204;1195;64018;-93
2021/10/01 04:29:52;;;;;;;;;;;;;;;4.18;99.96;100107.02;112274;1194;61113;-91
2021/10/01 04:32:18;;;;;;;;;;;;;;;4.17;100.00;100109.85;112300;1195;61009;-89
2021/10/01 04:37:41;;;;;;;;;;;;;;;4.16;99.99;100111.31;112173;1196;60943;-89
2021/10/01 04:40:07;;;;;;;;;;;;;;;4.14;100.00;100113.80;112330;1197;64100;-88
2021/10/01 04:42:34;;;;;;;;;;;;;;;4.15;100.00;100110.79;112280;1193;61045;-90
2021/10/01 04:45:00;;;;;;;;;;;;;;;4.17;100.00;100113.73;112308;1193;61112;-89
2021/10/01 04:47:27;;;;;;;;;;;;;;;4.19;100.00;100113.35;112326;1193;65714;-88
2021/10/01 04:49:53;;;;;;;;;;;;;;;4.21;100.00;100111.54;112361;1193;60979;-87
2021/10/01 04:52:20;;;;;;;;;;;;;;;4.24;100.00;100112.52;112360;1193;61597;-88
2021/10/01 04:54:47;;;;;;;;;;;;;;;4.28;100.00;100111.55;112279;1193;60979;-88
2021/10/01 04:57:13;;;;;;;;;;;;;;;4.33;100.00;100110.73;112283;1194;61044;-87
2021/10/01 04:59:40;;;;;;;;;;;;;;;4.37;100.00;100115.19;112301;1193;66186;-86
2021/10/01 05:02:06;;;;;;;;;;;;;;;4.42;100.00;100113.14;112326;1193;61043;-87
2021/10/01 05:04:35;;;;;;;;;;;;;;;4.46;100.00;100116.05;112281;1193;64029;-87
2021/10/01 05:07:02;;;;;;;;;;;;;;;4.49;100.00;100112.98;112255;1195;60999;-87
2021/10/01 05:09:28;;;;;;;;;;;;;;;4.54;100.00;100111.29;112240;1195;61037;-88
2021/10/01 05:11:55;;;;;;;;;;;;;;;4.63;100.00;100113.52;112290;1193;64654;-87
2021/10/01 05:14:21;;;;;;;;;;;;;;;4.73;100.00;100110.11;112221;1196;61161;-87
2021/10/01 05:16:48;;;;;;;;;;;;;;;4.81;100.00;100113.08;112254;1195;64080;-88
2021/10/01 05:19:14;;;;;;;;;;;;;;;4.84;99.92;100113.70;112332;1193;61043;-88
2021/10/01 05:21:41;;;;;;;;;;;;;;;4.87;99.87;100110.81;112243;1194;61046;-87
2021/10/01 05:24:08;;;;;;;;;;;;;;;4.91;99.83;100112.11;112319;1193;61152;-85
2021/10/01 05:26:34;;;;;;;;;;;;;;;4.98;99.82;100114.23;112259;1193;60911;-83
2021/10/01 05:29:01;;;;;;;;;;;;;;;5.07;99.92;100114.17;112301;1194;61039;-84
2021/10/01 05:31:28;;;;;;;;;;;;;;;5.16;99.72;100114.81;112267;1193;60982;-84
2021/10/01 05:33:55;;;;;;;;;;;;;;;5.22;99.55;100112.88;112277;1193;61208;-84
2021/10/01 05:36:22;;;;;;;;;;;;;;;5.25;99.40;100110.31;112284;1196;66983;-84
2021/10/01 05:38:48;;;;;;;;;;;;;;;5.33;99.43;100111.88;112329;1193;61020;-84
2021/10/01 05:41:15;;;;;;;;;;;;;;;5.38;99.37;100108.56;112296;1193;61160;-84
2021/10/01 05:43:42;;;;;;;;;;;;;;;5.43;99.31;100112.45;112280;1193;61052;-84
2021/10/01 05:46:08;;;;;;;;;;;;;;;5.48;99.27;100116.91;112311;1193;61056;-84
2021/10/01 05:48:37;;;;;;;;;;;;;;;5.49;99.11;100115.64;112312;1194;66034;-84
2021/10/01 05:51:07;;;;;;;;;;;;;;;5.50;99.12;100115.09;112288;1196;60943;-84
2021/10/01 05:56:11;;;;;;;;;;;;;;;5.60;99.23;100115.69;112260;1193;61094;-83
2021/10/01 05:58:39;;;;;;;;;;;;;;;5.66;99.24;100117.47;112324;1193;61119;-83
2021/10/01 06:01:06;;;;;;;;;;;;;;;5.71;99.17;100118.73;112285;1193;66070;-84
2021/10/01 06:03:33;;;;;;;;;;;;;;;5.75;99.12;100117.21;112267;1194;61132;-84
2021/10/01 06:06:00;;;;;;;;;;;;;;;5.79;99.18;100121.14;112271;1194;60998;-84
2021/10/01 06:08:27;;;;;;;;;;;;;;;5.87;99.13;100118.45;112233;1194;61019;-84
2021/10/01 06:10:53;;;;;;;;;;;;;;;5.97;99.08;100117.82;112277;1194;61043;-83
2021/10/01 06:13:20;;;;;;;;;;;;;;;6.06;99.06;100116.67;112314;1193;60991;-84
2021/10/01 06:15:46;;;;;;;;;;;;;;;6.20;99.04;100114.98;112234;1193;61043;-85
2021/10/01 06:18:13;;;;;;;;;;;;;;;6.36;98.96;100110.79;112310;1193;60979;-84
2021/10/01 06:20:39;;;;;;;;;;;;;;;6.52;98.71;100110.30;112257;1194;61056;-84
2021/10/01 06:23:06;;;;;;;;;;;;;;;6.68;98.68;100107.46;112293;1194;60969;-85
2021/10/01 06:25:32;;;;;;;;;;;;;;;6.85;98.50;100113.46;112263;1195;60950;-83
2021/10/01 06:27:59;;;;;;;;;;;;;;;7.06;98.37;100109.36;112280;1196;61085;-83
2021/10/01 06:30:25;;;;;;;;;;;;;;;7.29;98.16;100107.67;112254;1195;61007;-84
2021/10/01 06:32:52;;;;;;;;;;;;;;;7.50;97.84;100103.93;112046;1195;61084;-84
2021/10/01 06:35:18;;;;;;;;;;;;;;;7.70;97.51;100100.51;112276;1195;61056;-84
2021/10/01 06:37:45;;;;;;;;;;;;;;;7.93;97.24;100096.83;112276;1196;61029;-84
2021/10/01 06:40:12;;;;;;;;;;;;;;;8.11;96.97;100090.27;112230;1194;61155;-84
2021/10/01 06:42:42;;;;;;;;;;;;;;;8.16;96.72;100094.86;112015;1195;65534;-85
2021/10/01 06:45:08;;;;;;;;;;;;;;;8.18;96.90;100094.41;112683;1195;61019;-86
2021/10/01 06:47:49;;;;;;;;;;;;;;;8.30;97.10;100096.07;112653;1195;61026;-84
2021/10/01 06:50:39;;;;;;;;;;;;;;;8.37;96.73;100094.23;112417;1194;65884;-86
2021/10/01 07:39:02;;;;;;;;;;;;;;;8.58;96.47;100090.37;112061;1195;64088;-84
2021/10/01 08:21:05;;;;;;;;;;;;;;;10.28;96.26;100068.41;112170;1196;60975;-85
2021/10/01 08:23:32;;;;;;;;;;;;;;;10.42;96.33;100060.13;112245;1195;61077;-85
2021/10/01 08:25:59;;;;;;;;;;;;;;;10.57;96.09;100059.70;112034;1196;64670;-85
2021/10/01 08:28:25;;;;;;;;;;;;;;;10.70;95.82;100057.46;112266;1196;61059;-85
2021/10/01 08:30:52;;;;;;;;;;;;;;;10.85;95.56;100060.83;112296;1196;64039;-85
2021/10/01 08:33:18;;;;;;;;;;;;;;;10.95;94.92;100056.05;112261;1195;60979;-85
2021/10/01 08:35:45;;;;;;;;;;;;;;;11.04;94.65;100051.28;112210;1195;60978;-85
2021/10/01 08:38:12;;;;;;;;;;;;;;;11.16;94.42;100044.42;112257;1195;64452;-85
2021/10/01 08:40:38;;;;;;;;;;;;;;;11.26;93.65;100041.94;112225;1196;61005;-85
2021/10/01 08:43:06;;;;;;;;;;;;;;;11.35;93.72;100044.30;112099;1196;61032;-85
2021/10/01 08:45:32;;;;;;;;;;;;;;;11.47;93.26;100035.67;112197;1195;60979;-85
2021/10/01 08:48:00;;;;;;;;;;;;;;;11.54;92.73;100033.35;112026;1196;61065;-85
2021/10/01 08:50:27;;;;;;;;;;;;;;;11.62;92.86;100031.11;112269;1195;66114;-85
2021/10/01 08:52:59;;;;;;;;;;;;;;;11.74;92.30;100029.05;112251;1197;60968;-86
2021/10/01 08:55:28;;;;;;;;;;;;;;;11.81;91.68;100028.99;112313;1196;63668;-86
2021/10/01 08:57:54;;;;;;;;;;;;;;;11.89;91.95;100025.06;112252;1195;60937;-85
2021/10/01 09:00:21;;;;;;;;;;;;;;;12.00;91.53;100023.54;112327;1195;61020;-85
2021/10/01 09:02:48;;;;;;;;;;;;;;;12.10;91.04;100022.05;112138;1196;65708;-85
2021/10/01 09:05:16;;;;;;;;;;;;;;;12.22;90.89;100021.06;112265;1196;61042;-85
2021/10/01 09:07:42;;;;;;;;;;;;;;;12.36;90.38;100018.66;111994;1195;65025;-85
2021/10/01 09:10:10;;;;;;;;;;;;;;;12.44;89.41;100019.95;111991;1196;61010;-85
2021/10/01 09:12:37;;;;;;;;;;;;;;;12.54;89.63;100019.52;112219;1195;60947;-85
2021/10/01 09:15:05;;;;;;;;;;;;;;;12.67;89.14;100016.59;112271;1196;66013;-85
2021/10/01 09:17:33;;;;;;;;;;;;;;;12.77;88.11;100016.21;112275;1195;61024;-86
2021/10/01 09:20:00;;;;;;;;;;;;;;;12.80;87.44;100015.13;112226;1195;64024;-86
2021/10/01 09:22:31;;;;;;;;;;;;;;;12.85;87.39;100010.03;112308;1195;61166;-85
2021/10/01 09:25:17;;;;;;;;;;;;;;;12.94;87.06;100007.70;112248;1195;61003;-85
2021/10/01 09:27:45;;;;;;;;;;;;;;;13.00;86.35;100008.77;112318;1196;66051;-86
2021/10/01 09:30:12;;;;;;;;;;;;;;;13.02;86.04;100009.56;112241;1196;61016;-85
2021/10/01 09:32:40;;;;;;;;;;;;;;;13.06;85.67;100008.56;112293;1196;62757;-86
2021/10/01 09:35:11;;;;;;;;;;;;;;;13.12;85.64;100011.22;112276;1196;61059;-86
2021/10/01 09:37:38;;;;;;;;;;;;;;;13.20;85.52;100010.77;112282;1196;61064;-87
2021/10/01 09:40:05;;;;;;;;;;;;;;;13.28;85.38;100009.59;112512;1195;65995;-90
2021/10/01 09:42:39;;;;;;;;;;;;;;;13.33;84.44;100005.04;112808;1195;61183;-88
2021/10/01 09:45:07;;;;;;;;;;;;;;;13.35;84.43;99999.90;112359;1196;63999;-87
2021/10/01 09:47:35;;;;;;;;;;;;;;;13.42;84.23;99994.29;112601;1196;61195;-86
2021/10/01 09:50:07;;;;;;;;;;;;;;;13.47;83.85;99990.18;112990;1195;60949;-87
2021/10/01 09:52:45;;;;;;;;;;;;;;;13.53;83.62;99986.09;112546;1196;64359;-87
2021/10/01 09:55:13;;;;;;;;;;;;;;;13.58;84.02;99984.70;112232;1195;61065;-88
2021/10/01 09:57:58;;;;;;;;;;;;;;;13.70;84.22;99980.02;112215;1195;64057;-87
2021/10/01 10:00:30;;;;;;;;;;;;;;;13.85;83.93;99979.22;112200;1196;61071;-87
2021/10/01 10:02:56;;;;;;;;;;;;;;;13.96;83.94;99977.25;112261;1196;61020;-87
2021/10/01 10:05:23;;;;;;;;;;;;;;;14.09;84.30;99974.65;112271;1196;61047;-85
2021/10/01 10:07:49;;;;;;;;;;;;;;;14.21;83.77;99974.71;112281;1195;61036;-85
2021/10/01 10:10:16;;;;;;;;;;;;;;;14.25;82.98;99979.96;112275;1195;62426;-85
2021/10/01 10:12:44;;;;;;;;;;;;;;;14.26;82.66;99977.97;112238;1197;61039;-85
2021/10/01 10:15:15;;;;;;;;;;;;;;;14.36;82.58;99974.44;112321;1195;61030;-86
2021/10/01 10:17:49;;;;;;;;;;;;;;;14.48;82.11;99972.73;112310;1195;65907;-86
2021/10/01 10:20:17;;;;;;;;;;;;;;;14.56;81.69;99969.39;112050;1195;61030;-86
2021/10/01 10:22:43;;;;;;;;;;;;;;;14.64;81.70;99967.38;112313;1197;64710;-88
2021/10/01 10:25:10;;;;;;;;;;;;;;;14.70;81.81;99966.60;112004;1197;61181;-88
2021/10/01 10:27:37;;;;;;;;;;;;;;;14.79;81.76;99962.79;112244;1196;61059;-90
2021/10/01 10:30:05;;;;;;;;;;;;;;;14.85;81.25;99962.55;112031;1196;66088;-89
2021/10/01 10:32:32;;;;;;;;;;;;;;;14.86;80.92;99963.54;112301;1195;60937;-90
2021/10/01 10:35:06;;;;;;;;;;;;;;;14.85;80.14;99962.88;112019;1195;62612;-89
2021/10/01 10:37:39;;;;;;;;;;;;;;;14.81;80.32;99963.15;112039;1196;61111;-90
2021/10/01 10:40:10;;;;;;;;;;;;;;;14.83;80.48;99954.65;112325;1196;61013;-89
2021/10/01 10:42:42;;;;;;;;;;;;;;;14.86;80.18;99956.75;112084;1196;67012;-90
2021/10/01 10:45:10;;;;;;;;;;;;;;;14.90;80.40;99959.81;112273;1196;61052;-89
2021/10/01 10:47:42;;;;;;;;;;;;;;;14.98;80.29;99954.27;111990;1196;62693;-89
2021/10/01 10:50:35;;;;;;;;;;;;;;;15.06;80.25;99952.30;112285;1195;60988;-89
2021/10/01 10:53:04;;;;;;;;;;;;;;;15.06;79.68;99951.26;112042;1196;61532;-89
2021/10/01 10:55:35;;;;;;;;;;;;;;;15.07;79.65;99947.90;112311;1196;64630;-89
2021/10/01 10:58:21;;;;;;;;;;;;;;;15.11;79.21;99944.10;112010;1195;61097;-89
2021/10/01 11:00:48;;;;;;;;;;;;;;;15.16;79.67;99943.56;112274;1196;62620;-92
2021/10/01 11:03:18;;;;;;;;;;;;;;;15.24;79.51;99937.77;112034;1196;60946;-89
2021/10/01 11:06:04;;;;;;;;;;;;;;;15.26;79.24;99936.05;111948;1196;61000;-89
2021/10/01 11:08:31;;;;;;;;;;;;;;;15.35;79.48;99931.44;112322;1196;66108;-89
2021/10/01 11:10:58;;;;;;;;;;;;;;;15.49;79.35;99928.11;112318;1196;61033;-88
2021/10/01 11:13:26;;;;;;;;;;;;;;;15.55;78.52;99927.66;112261;1196;62593;-88
2021/10/01 11:16:07;;;;;;;;;;;;;;;15.57;78.69;99920.90;112320;1196;61067;-88
2021/10/01 11:21:28;;;;;;;;;;;;;;;15.67;78.13;99915.14;112268;1195;66182;-89
2021/10/01 11:23:58;;;;;;;;;;;;;;;15.69;77.79;99912.01;112250;1196;60987;-88
2021/10/01 11:26:26;;;;;;;;;;;;;;;15.71;77.92;99908.98;111927;1197;62761;-88
2021/10/01 11:28:52;;;;;;;;;;;;;;;15.75;78.05;99905.98;112286;1195;60985;-88
2021/10/01 11:31:19;;;;;;;;;;;;;;;15.77;77.73;99900.84;112277;1195;61665;-89
2021/10/01 11:33:49;;;;;;;;;;;;;;;15.76;77.48;99897.88;112002;1195;64866;-88
2021/10/01 11:36:24;;;;;;;;;;;;;;;15.78;77.20;99894.17;112359;1196;61052;-90
2021/10/01 11:39:00;;;;;;;;;;;;;;;15.82;77.31;99894.56;112297;1196;64009;-89
2021/10/01 11:41:27;;;;;;;;;;;;;;;15.89;77.35;99888.52;111986;1195;61016;-88
2021/10/01 11:43:55;;;;;;;;;;;;;;;15.95;77.00;99884.27;112301;1195;61053;-89
2021/10/01 11:46:29;;;;;;;;;;;;;;;15.96;76.90;99883.68;112283;1196;66039;-88
2021/10/01 11:48:56;;;;;;;;;;;;;;;16.01;77.52;99877.02;112309;1195;61055;-89
2021/10/01 11:51:22;;;;;;;;;;;;;;;16.11;77.48;99871.08;112283;1196;63774;-87
2021/10/01 11:54:04;;;;;;;;;;;;;;;16.11;76.53;99871.92;111986;1196;60994;-88
2021/10/01 11:56:30;;;;;;;;;;;;;;;16.09;76.74;99866.94;112234;1195;61110;-88
2021/10/01 11:58:57;;;;;;;;;;;;;;;16.09;76.44;99864.55;111962;1196;61013;-88
2021/10/01 12:01:23;;;;;;;;;;;;;;;16.12;76.25;99863.84;112262;1196;61158;-88
2021/10/01 12:03:51;;;;;;;;;;;;;;;16.14;75.54;99864.17;112261;1196;61177;-88
2021/10/01 12:06:19;;;;;;;;;;;;;;;16.12;75.68;99860.92;112275;1196;61060;-88
2021/10/01 12:08:55;;;;;;;;;;;;;;;16.15;75.87;99857.10;112265;1195;60975;-89
2021/10/01 12:11:24;;;;;;;;;;;;;;;16.21;75.93;99851.48;112257;1196;66041;-88
2021/10/01 12:13:51;;;;;;;;;;;;;;;16.29;76.03;99847.95;112016;1195;61043;-88
2021/10/01 12:16:17;;;;;;;;;;;;;;;16.35;75.67;99849.45;112016;1196;63855;-89
2021/10/01 12:18:54;;;;;;;;;;;;;;;16.37;75.56;99848.46;112245;1194;61003;-88
2021/10/01 12:21:23;;;;;;;;;;;;;;;16.37;75.07;99842.73;112293;1195;61091;-88
2021/10/01 12:24:00;;;;;;;;;;;;;;;16.33;74.67;99840.33;112271;1196;64699;-88
2021/10/01 12:26:31;;;;;;;;;;;;;;;16.30;74.63;99837.14;112454;1195;68044;-88
2021/10/01 12:29:04;;;;;;;;;;;;;;;16.31;74.34;99839.18;112071;1196;62358;-90
2021/10/01 12:31:42;;;;;;;;;;;;;;;16.33;74.26;99833.48;112296;1195;60976;-89
2021/10/01 12:34:21;;;;;;;;;;;;;;;16.37;74.50;99828.52;112556;1195;61027;-88
2021/10/01 12:36:52;;;;;;;;;;;;;;;16.39;74.61;99823.16;112746;1195;66031;-89
2021/10/01 12:39:21;;;;;;;;;;;;;;;16.41;74.60;99820.02;113591;1195;61048;-88
2021/10/01 12:41:58;;;;;;;;;;;;;;;16.42;74.79;99813.44;112791;1195;63230;-86
2021/10/01 12:44:25;;;;;;;;;;;;;;;16.47;74.55;99815.56;113468;1196;61123;-88
2021/10/01 12:46:54;;;;;;;;;;;;;;;16.44;73.65;99808.61;113749;1195;59681;-87
2021/10/01 12:49:25;;;;;;;;;;;;;;;16.41;73.34;99804.19;112612;1196;66037;-87
2021/10/01 12:52:11;;;;;;;;;;;;;;;16.40;73.28;99800.88;112356;1196;60989;-90
2021/10/01 12:54:40;;;;;;;;;;;;;;;16.46;74.29;99801.49;112229;1196;62785;-91
2021/10/01 12:57:10;;;;;;;;;;;;;;;16.54;74.32;99793.88;112256;1195;61081;-88
2021/10/01 12:59:50;;;;;;;;;;;;;;;16.56;74.12;99789.20;112288;1195;61055;-88
2021/10/01 13:02:18;;;;;;;;;;;;;;;16.55;73.93;99788.73;112150;1195;65820;-89
2021/10/01 13:04:47;;;;;;;;;;;;;;;16.49;73.70;99782.02;112226;1196;61140;-88
2021/10/01 13:07:24;;;;;;;;;;;;;;;16.47;73.41;99780.93;112214;1195;64013;-88
2021/10/01 13:09:51;;;;;;;;;;;;;;;16.48;73.68;99779.44;111904;1195;61068;-88
2021/10/01 13:12:30;;;;;;;;;;;;;;;16.52;73.77;99777.53;111853;1196;61072;-88
2021/10/01 13:15:10;;;;;;;;;;;;;;;16.53;73.32;99774.40;112318;1196;66113;-86
2021/10/01 13:17:36;;;;;;;;;;;;;;;16.54;73.38;99773.63;112184;1196;61056;-87
2021/10/01 13:20:03;;;;;;;;;;;;;;;16.57;73.55;99772.80;112232;1195;62665;-87
2021/10/01 13:22:48;;;;;;;;;;;;;;;16.59;73.40;99767.22;111946;1195;60981;-87
2021/10/01 13:25:25;;;;;;;;;;;;;;;16.59;73.08;99768.33;112262;1195;61508;-88
2021/10/01 13:27:53;;;;;;;;;;;;;;;16.58;73.20;99765.04;111904;1196;66027;-88
2021/10/01 13:30:19;;;;;;;;;;;;;;;16.57;73.04;99762.96;111945;1195;61144;-88
2021/10/01 13:32:46;;;;;;;;;;;;;;;16.54;73.02;99759.02;111947;1196;64045;-88
2021/10/01 13:35:15;;;;;;;;;;;;;;;16.53;72.98;99755.86;112297;1196;60986;-88
2021/10/01 13:37:43;;;;;;;;;;;;;;;16.52;72.80;99754.17;112281;1194;61017;-88
2021/10/01 13:40:10;;;;;;;;;;;;;;;16.53;73.14;99749.98;112221;1197;66048;-88
2021/10/01 13:42:36;;;;;;;;;;;;;;;16.58;73.40;99750.10;112006;1196;61059;-90
2021/10/01 13:45:03;;;;;;;;;;;;;;;16.62;73.13;99744.09;112225;1195;63827;-88
2021/10/01 13:47:31;;;;;;;;;;;;;;;16.61;73.15;99744.89;111999;1196;61007;-88
2021/10/01 13:49:58;;;;;;;;;;;;;;;16.59;72.90;99747.30;112271;1196;60937;-88
2021/10/01 13:52:25;;;;;;;;;;;;;;;16.58;72.51;99743.48;112308;1196;65643;-88
2021/10/01 13:54:52;;;;;;;;;;;;;;;16.59;72.66;99743.24;112286;1196;61055;-88
2021/10/01 13:57:19;;;;;;;;;;;;;;;16.61;72.93;99741.06;112259;1196;62665;-88
2021/10/01 13:59:49;;;;;;;;;;;;;;;16.62;72.95;99737.74;112052;1195;61122;-89
2021/10/01 14:02:15;;;;;;;;;;;;;;;16.63;73.02;99731.25;112294;1195;61010;-89
2021/10/01 14:04:42;;;;;;;;;;;;;;;16.64;73.13;99731.86;112285;1195;65842;-89
2021/10/01 14:07:09;;;;;;;;;;;;;;;16.61;72.76;99730.98;112264;1196;60985;-88
2021/10/01 14:09:36;;;;;;;;;;;;;;;16.54;72.54;99730.50;112248;1195;64048;-89
2021/10/01 14:12:02;;;;;;;;;;;;;;;16.50;72.74;99731.77;111932;1195;61030;-88
2021/10/01 14:14:29;;;;;;;;;;;;;;;16.48;72.87;99726.16;112236;1195;61033;-89
2021/10/01 14:16:56;;;;;;;;;;;;;;;16.47;72.70;99724.45;112252;1195;64416;-89
2021/10/01 14:19:22;;;;;;;;;;;;;;;16.44;72.71;99718.00;112012;1195;60988;-89
2021/10/01 14:21:49;;;;;;;;;;;;;;;16.47;72.98;99719.77;112283;1195;62454;-88